Skyland, North Carolina
Current Conditions -  °F | °C
As of 1:54 PM on Tuesday 21 Oct 2014 (Local Time) from KAVL Reporting Station
Clear Clear  
Wind Chill: 66°   Ceiling: Unl
Heat Index: 66°   Visibility: 10mi
Dew Point: 41°   Wind: 15mph
Humidity: 40%   Direction: 350°N
Pressure: 29.94"   Gusts: NA
Location:  35.49°N, 82.52°W
Report Text: KAVL 211754Z 35013KT 10SM CLR 19/05 A2994 RMK AO2 SLP127 T01890050 10189 20061 58019
Loading
Personal Weather Stations






























Interactive Weather Map
Tropical Storm Tracking
New forecast layout! Learn more

10-Day Weather Forecast

Advertisements
Track Severe Weather on mobile